Дата Пункты Температура Давл., мм. Влажн., % Ветер Погодные явления
Воздуха Воды Направл. Скорость
17.07.19 06:00 Одесса 17.0 21.0 753 71 Пн 0 06 ГОДИН
17.07.19 03:00 Одесса 19.0 21.0 753 61 Пн-З 1 03 ГОДИНИ
16.07.19 09:00 Одесса 22.0 21.0 753 63 Пн 0 21 ГОДИНУ
16.07.19 06:00 Одесса 25.0 21.0 753 54 Пд 3 18 ГОДИН
16.07.19 03:00 Одесса 24.0 21.0 753 60 Пд 4 15 ГОДИН
16.07.19 12:00 Одесса 25.0 20.0 753 52 Пн 2 12 ГОДИН
16.07.19 09:00 Одесса 22.0 20.0 753 63 Пн 1 09 ГОДИН
16.07.19 06:00 Одесса 17.0 20.0 753 82 Пн-З 1 06 ГОДИН
16.07.19 03:00 Одесса 18.0 20.0 753 74 Пн-З 1 03 ГОДИНИ
15.07.19 09:00 Одесса 21.0 20.0 753 61 Пн-З 3 21 ГОДИНУ
15.07.19 06:00 Одесса 25.0 20.0 752 43 Пн 2 18 ГОДИН
15.07.19 03:00 Одесса 26.0 20.0 752 42 Пд 1 15 ГОДИН
15.07.19 12:00 Одесса 24.0 18.0 752 49 Пн-С 3 12 ГОДИН
15.07.19 09:00 Одесса 21.0 18.0 752 59 Пн 1 09 ГОДИН
15.07.19 06:00 Одесса 17.0 16.0 752 74 Пн-З 1 06 ГОДИН
15.07.19 03:00 Одесса 18.0 16.0 752 72 Пн-З 1 03 ГОДИНИ
14.07.19 09:00 Одесса 20.0 16.0 753 66 Пн-З 1 21 ГОДИНУ
14.07.19 06:00 Одесса 23.0 16.0 752 55 Пд 3 18 ГОДИН
11.07.19 03:00 Одесса 24.0 18.0 752 39 Пн-З 2 15 ГОДИН
11.07.19 12:00 Одесса 24.0 17.0 752 40 Пн 2 12 ГОДИН
Количество строк
1 2 3 4 5 6 7 8 9 10
Page 3 of 511